Time;durP1;ratioP1;P1;durP2;ratioP2;P2;SDS_P1;SDS_P2;PMS_P1;PMS_P2;Temp;Humidity;BMP_temperature;BMP_pressure;BME280_temperature;BME280_humidity;BME280_pressure;Samples;Min_cycle;Max_cycle;Signal;HPM_P1;HPM_P2
2021/04/10 00:00:07;;;;;;;4.90;0.83;;;;;;;;;;10279920;28;20092;-65
2021/04/10 00:05:05;;;;;;;4.20;1.00;;;;;;;;;;10280322;28;20038;-65
2021/04/10 00:10:04;;;;;;;5.35;1.23;;;;;;;;;;10282882;28;20041;-65
2021/04/10 00:15:03;;;;;;;3.45;1.27;;;;;;;;;;10289044;28;20554;-66
2021/04/10 00:20:01;;;;;;;3.90;1.00;;;;;;;;;;10278088;28;20087;-65
2021/04/10 00:24:58;;;;;;;6.90;1.10;;;;;;;;;;10258333;28;20499;-65
2021/04/10 00:29:55;;;;;;;4.87;0.50;;;;;;;;;;10284110;28;20056;-66
2021/04/10 00:34:53;;;;;;;2.70;0.70;;;;;;;;;;10274818;28;20037;-64
2021/04/10 00:39:50;;;;;;;2.23;0.80;;;;;;;;;;10279352;28;20037;-65
2021/04/10 00:44:48;;;;;;;6.90;0.97;;;;;;;;;;10299558;28;20037;-65
2021/04/10 00:49:46;;;;;;;4.65;0.93;;;;;;;;;;10280058;28;20041;-66
2021/04/10 00:54:44;;;;;;;;;;;;;;;;;;10302679;28;20381;-65
2021/04/10 00:59:41;;;;;;;3.47;0.60;;;;;;;;;;10290972;28;19913;-65
2021/04/10 01:04:40;;;;;;;2.03;1.07;;;;;;;;;;10282345;28;20744;-65
2021/04/10 01:09:37;;;;;;;4.80;0.70;;;;;;;;;;10289005;28;20132;-65
2021/04/10 01:14:54;;;;;;;4.45;1.15;;;;;;;;;;10283725;28;20431;-65
2021/04/10 01:19:52;;;;;;;1.35;0.30;;;;;;;;;;10292399;28;20033;-64
2021/04/10 01:25:06;;;;;;;1.97;0.63;;;;;;;;;;10292999;28;20048;-64
2021/04/10 01:30:09;;;;;;;0.57;0.55;;;;;;;;;;10301009;28;20489;-65
2021/04/10 01:35:08;;;;;;;1.67;0.40;;;;;;;;;;10282207;28;20029;-66
2021/04/10 01:40:07;;;;;;;3.95;0.70;;;;;;;;;;10263205;28;20691;-66
2021/04/10 01:45:06;;;;;;;0.85;0.70;;;;;;;;;;10266610;28;20537;-65
2021/04/10 01:50:05;;;;;;;0.55;0.10;;;;;;;;;;10278504;28;20456;-65
2021/04/10 01:55:03;;;;;;;5.15;0.40;;;;;;;;;;10289602;28;20042;-66
2021/04/10 02:00:04;;;;;;;0.98;0.32;;;;;;;;;;10270367;28;20041;-66
2021/04/10 02:05:23;;;;;;;0.30;0.30;;;;;;;;;;10287448;28;20037;-66
2021/04/10 02:10:31;;;;;;;3.08;0.73;;;;;;;;;;10260217;28;20036;-66
2021/04/10 02:15:40;;;;;;;8.23;0.70;;;;;;;;;;10271503;28;20767;-66
2021/04/10 02:20:38;;;;;;;5.82;0.77;;;;;;;;;;10254991;28;20038;-64
2021/04/10 02:25:37;;;;;;;3.47;0.55;;;;;;;;;;10281497;28;20041;-65
2021/04/10 02:30:35;;;;;;;0.30;0.30;;;;;;;;;;10289611;28;20045;-66
2021/04/10 02:35:33;;;;;;;0.20;0.20;;;;;;;;;;10263203;28;20088;-65
2021/04/10 02:40:32;;;;;;;;;;;;;;;;;;10287007;28;20324;-65
2021/04/10 02:45:30;;;;;;;2.05;1.45;;;;;;;;;;10245873;28;19924;-64
2021/04/10 02:50:29;;;;;;;4.28;0.45;;;;;;;;;;10293822;28;20041;-63
2021/04/10 02:55:43;;;;;;;6.90;0.55;;;;;;;;;;10230059;28;20186;-64
2021/04/10 03:00:44;;;;;;;0.55;0.30;;;;;;;;;;10284113;28;20037;-65
2021/04/10 03:05:44;;;;;;;0.43;0.30;;;;;;;;;;10269879;28;20120;-64
2021/04/10 03:10:45;;;;;;;4.28;0.57;;;;;;;;;;10284360;28;20738;-64
2021/04/10 03:15:43;;;;;;;0.75;0.30;;;;;;;;;;10283210;28;20474;-65
2021/04/10 03:20:42;;;;;;;0.35;0.35;;;;;;;;;;10259772;28;20116;-64
2021/04/10 03:25:41;;;;;;;0.20;0.20;;;;;;;;;;10290830;28;20091;-65
2021/04/10 03:30:39;;;;;;;2.33;0.63;;;;;;;;;;10287271;28;20107;-65
2021/04/10 03:35:39;;;;;;;1.45;0.30;;;;;;;;;;10271985;28;20034;-64
2021/04/10 03:40:37;;;;;;;1.00;0.90;;;;;;;;;;10266860;28;20030;-64
2021/04/10 03:45:34;;;;;;;1.70;1.00;;;;;;;;;;10268612;28;20037;-64
2021/04/10 03:50:38;;;;;;;0.52;0.47;;;;;;;;;;10269883;28;20045;-66
2021/04/10 03:55:36;;;;;;;1.17;0.25;;;;;;;;;;10268959;28;20394;-65
2021/04/10 04:00:35;;;;;;;1.70;0.55;;;;;;;;;;10291380;28;20042;-66
2021/04/10 04:05:37;;;;;;;1.55;0.40;;;;;;;;;;10288133;28;20120;-66
2021/04/10 04:10:34;;;;;;;1.20;0.93;;;;;;;;;;10274647;28;20136;-65
2021/04/10 04:15:31;;;;;;;3.90;0.90;;;;;;;;;;10288844;28;20124;-65
2021/04/10 04:20:30;;;;;;;1.50;0.47;;;;;;;;;;10278441;28;20057;-65
2021/04/10 04:25:27;;;;;;;8.00;0.70;;;;;;;;;;10282426;28;20050;-65
2021/04/10 04:30:25;;;;;;;6.50;0.67;;;;;;;;;;10297207;28;20037;-65
2021/04/10 04:35:22;;;;;;;2.93;0.83;;;;;;;;;;10258637;28;20498;-66
2021/04/10 04:40:19;;;;;;;0.53;0.43;;;;;;;;;;10271287;28;20037;-65
2021/04/10 04:45:17;;;;;;;0.90;0.57;;;;;;;;;;10265697;28;20132;-65
2021/04/10 04:50:14;;;;;;;2.40;0.40;;;;;;;;;;10287748;28;20552;-66
2021/04/10 04:55:12;;;;;;;4.07;0.67;;;;;;;;;;10272777;28;20041;-65
2021/04/10 05:00:10;;;;;;;0.25;0.25;;;;;;;;;;10280635;28;20065;-66
2021/04/10 05:05:08;;;;;;;1.27;0.50;;;;;;;;;;10288427;28;20144;-66
2021/04/10 05:10:05;;;;;;;2.00;0.67;;;;;;;;;;10284868;28;20025;-65
2021/04/10 05:15:04;;;;;;;0.50;0.50;;;;;;;;;;10283656;28;20029;-67
2021/04/10 05:20:02;;;;;;;0.38;0.30;;;;;;;;;;10279742;28;20064;-65
2021/04/10 05:24:59;;;;;;;15.97;1.73;;;;;;;;;;10281762;28;20582;-65
2021/04/10 05:29:57;;;;;;;6.50;1.27;;;;;;;;;;10288394;28;20117;-66
2021/04/10 05:34:54;;;;;;;2.30;1.10;;;;;;;;;;10286970;28;20052;-65
2021/04/10 05:39:51;;;;;;;3.03;1.53;;;;;;;;;;10289336;28;20486;-65
2021/04/10 05:44:49;;;;;;;5.73;1.27;;;;;;;;;;10275846;28;20437;-66
2021/04/10 05:49:46;;;;;;;4.70;1.97;;;;;;;;;;10289514;28;20413;-66
2021/04/10 05:54:44;;;;;;;5.70;0.90;;;;;;;;;;10288749;28;20026;-65
2021/04/10 05:59:41;;;;;;;2.77;0.83;;;;;;;;;;10297363;28;20052;-65
2021/04/10 06:04:39;;;;;;;4.40;0.77;;;;;;;;;;10287317;28;20043;-65
2021/04/10 06:09:36;;;;;;;1.00;0.40;;;;;;;;;;10290671;28;20083;-65
2021/04/10 06:14:34;;;;;;;4.03;2.83;;;;;;;;;;10285444;28;20037;-65
2021/04/10 06:19:31;;;;;;;2.40;0.80;;;;;;;;;;10279547;28;20179;-65
2021/04/10 06:24:28;;;;;;;6.30;1.00;;;;;;;;;;10277578;28;20414;-64
2021/04/10 06:29:26;;;;;;;9.67;1.00;;;;;;;;;;10291267;28;20479;-65
2021/04/10 06:34:24;;;;;;;2.90;0.70;;;;;;;;;;10288899;28;20041;-64
2021/04/10 06:39:22;;;;;;;1.40;0.50;;;;;;;;;;10275206;28;20034;-65
2021/04/10 06:44:19;;;;;;;2.80;0.85;;;;;;;;;;10294746;28;20045;-65
2021/04/10 06:49:18;;;;;;;5.00;0.80;;;;;;;;;;10286954;28;20083;-64
2021/04/10 06:54:16;;;;;;;6.93;0.98;;;;;;;;;;10279589;28;20041;-64
2021/04/10 06:59:37;;;;;;;3.90;0.90;;;;;;;;;;10272564;28;20048;-65
2021/04/10 07:04:35;;;;;;;1.75;0.65;;;;;;;;;;10243174;28;20579;-65
2021/04/10 07:09:34;;;;;;;6.23;0.70;;;;;;;;;;10266064;28;20041;-65
2021/04/10 07:14:31;;;;;;;1.02;0.60;;;;;;;;;;10283277;28;20530;-64
2021/04/10 07:19:29;;;;;;;0.40;0.40;;;;;;;;;;10289170;28;20041;-65
2021/04/10 07:24:45;;;;;;;0.75;0.63;;;;;;;;;;10267467;28;20034;-65
2021/04/10 07:29:43;;;;;;;2.45;0.40;;;;;;;;;;10285264;28;20068;-65
2021/04/10 07:34:43;;;;;;;1.55;0.20;;;;;;;;;;10284220;28;20407;-65
2021/04/10 07:39:44;;;;;;;0.50;0.50;;;;;;;;;;10282375;28;20608;-65
2021/04/10 07:44:42;;;;;;;0.43;0.15;;;;;;;;;;10261052;28;20026;-65
2021/04/10 07:49:39;;;;;;;4.80;0.73;;;;;;;;;;10263547;28;20045;-64
2021/04/10 07:54:38;;;;;;;2.10;0.43;;;;;;;;;;10289320;28;20038;-65
2021/04/10 07:59:45;;;;;;;3.03;0.47;;;;;;;;;;10265760;28;20100;-65
2021/04/10 08:05:02;;;;;;;2.90;0.40;;;;;;;;;;10282028;28;20491;-65
2021/04/10 08:10:00;;;;;;;1.50;0.40;;;;;;;;;;10281707;28;20128;-64
2021/04/10 08:14:58;;;;;;;4.65;0.60;;;;;;;;;;10243417;28;20022;-65
2021/04/10 08:19:56;;;;;;;0.20;0.20;;;;;;;;;;10278721;28;20038;-64
2021/04/10 08:24:53;;;;;;;6.77;1.90;;;;;;;;;;10283510;28;20033;-66
2021/04/10 08:29:51;;;;;;;5.30;1.10;;;;;;;;;;10274245;28;20048;-65
2021/04/10 08:34:48;;;;;;;1.80;0.80;;;;;;;;;;10271049;28;20034;-65
2021/04/10 08:39:48;;;;;;;9.37;1.27;;;;;;;;;;10263393;28;20942;-67
2021/04/10 08:44:47;;;;;;;4.38;0.82;;;;;;;;;;10276661;28;20030;-65
2021/04/10 08:49:47;;;;;;;6.25;1.20;;;;;;;;;;10250556;28;20095;-65
2021/04/10 08:54:45;;;;;;;7.88;0.68;;;;;;;;;;10259317;28;20507;-65
2021/04/10 08:59:44;;;;;;;1.25;0.93;;;;;;;;;;10285539;28;20041;-65
2021/04/10 09:04:56;;;;;;;0.47;0.47;;;;;;;;;;10300836;28;20446;-65
2021/04/10 09:09:54;;;;;;;1.65;0.50;;;;;;;;;;10253819;28;20041;-65
2021/04/10 09:14:51;;;;;;;2.00;0.60;;;;;;;;;;10278065;28;20084;-65
2021/04/10 09:19:53;;;;;;;1.03;0.40;;;;;;;;;;10268497;28;20037;-65
2021/04/10 09:24:55;;;;;;;3.92;0.63;;;;;;;;;;10250532;28;20056;-66
2021/04/10 09:29:57;;;;;;;1.23;0.90;;;;;;;;;;10263413;28;20036;-65
2021/04/10 09:34:56;;;;;;;3.22;1.17;;;;;;;;;;10264509;28;20026;-65
2021/04/10 09:39:59;;;;;;;2.25;0.50;;;;;;;;;;10282675;28;20037;-65
2021/04/10 09:45:16;;;;;;;3.42;0.40;;;;;;;;;;10256289;28;20030;-65
2021/04/10 09:50:14;;;;;;;2.05;0.60;;;;;;;;;;10260371;28;20790;-66
2021/04/10 09:55:11;;;;;;;0.93;0.23;;;;;;;;;;10289701;28;20029;-65
2021/04/10 10:00:09;;;;;;;2.30;0.40;;;;;;;;;;10271986;28;20179;-65
2021/04/10 10:05:07;;;;;;;2.60;0.90;;;;;;;;;;10287481;28;20034;-65
2021/04/10 10:10:07;;;;;;;3.77;0.70;;;;;;;;;;10280305;28;20611;-65
2021/04/10 10:15:24;;;;;;;0.75;0.40;;;;;;;;;;10279399;28;20264;-66
2021/04/10 10:20:21;;;;;;;4.22;0.65;;;;;;;;;;10274091;28;20079;-66
2021/04/10 10:25:19;;;;;;;1.60;0.60;;;;;;;;;;10261899;28;20049;-65
2021/04/10 10:30:18;;;;;;;1.50;0.63;;;;;;;;;;10259807;28;20037;-66
2021/04/10 10:35:16;;;;;;;1.13;0.50;;;;;;;;;;10275420;28;20402;-66
2021/04/10 10:40:23;;;;;;;0.57;0.47;;;;;;;;;;10260724;28;20041;-65
2021/04/10 10:45:37;;;;;;;1.80;0.10;;;;;;;;;;10254386;28;20442;-66
2021/04/10 10:50:34;;;;;;;3.50;0.20;;;;;;;;;;10259240;28;20033;-65
2021/04/10 10:55:31;;;;;;;4.17;0.90;;;;;;;;;;10288882;28;20133;-66
2021/04/10 11:00:29;;;;;;;0.30;0.30;;;;;;;;;;10278326;28;20039;-66
2021/04/10 11:05:27;;;;;;;1.70;0.50;;;;;;;;;;10264876;28;20033;-66
2021/04/10 11:10:24;;;;;;;2.43;0.57;;;;;;;;;;10277246;28;20038;-63
2021/04/10 11:15:22;;;;;;;2.00;0.53;;;;;;;;;;10259695;28;20531;-64
2021/04/10 11:20:33;;;;;;;1.03;0.40;;;;;;;;;;10283013;28;20048;-63
2021/04/10 11:25:45;;;;;;;0.85;0.25;;;;;;;;;;10285048;28;20066;-64
2021/04/10 11:31:00;;;;;;;2.97;0.60;;;;;;;;;;10283373;28;20459;-65
2021/04/10 11:35:58;;;;;;;1.40;0.40;;;;;;;;;;10245126;28;20125;-64
2021/04/10 11:40:55;;;;;;;0.50;0.30;;;;;;;;;;10251106;28;20442;-65
2021/04/10 11:45:53;;;;;;;1.37;0.67;;;;;;;;;;10261641;28;20041;-65
2021/04/10 11:50:51;;;;;;;;;;;;;;;;;;10279682;28;20128;-65
2021/04/10 11:55:49;;;;;;;0.77;0.30;;;;;;;;;;10284125;28;20476;-65
2021/04/10 12:00:46;;;;;;;0.25;0.10;;;;;;;;;;10264864;28;20049;-65
2021/04/10 12:05:44;;;;;;;1.10;0.30;;;;;;;;;;10276530;28;20038;-65
2021/04/10 12:10:52;;;;;;;1.95;0.40;;;;;;;;;;10273065;28;20030;-65
2021/04/10 12:15:59;;;;;;;1.03;0.40;;;;;;;;;;10267619;28;20511;-64
2021/04/10 12:20:58;;;;;;;0.65;0.30;;;;;;;;;;10240399;28;20123;-64
2021/04/10 12:25:55;;;;;;;0.45;0.20;;;;;;;;;;10271655;28;20519;-65
2021/04/10 12:30:53;;;;;;;1.80;0.30;;;;;;;;;;10276976;28;20391;-65
2021/04/10 12:35:51;;;;;;;0.32;0.30;;;;;;;;;;10265684;28;20652;-64
2021/04/10 12:40:48;;;;;;;1.75;0.25;;;;;;;;;;10253044;28;20038;-65
2021/04/10 12:45:46;;;;;;;0.83;0.50;;;;;;;;;;10288482;28;20052;-63
2021/04/10 12:50:44;;;;;;;1.08;0.20;;;;;;;;;;10294544;28;20048;-65
2021/04/10 12:55:42;;;;;;;0.23;0.20;;;;;;;;;;10282569;28;20036;-64
2021/04/10 13:00:39;;;;;;;1.20;0.20;;;;;;;;;;10291854;28;20095;-66
2021/04/10 13:05:36;;;;;;;2.43;0.30;;;;;;;;;;10293373;28;20788;-65
2021/04/10 13:10:34;;;;;;;1.10;0.20;;;;;;;;;;10288453;28;20099;-65
2021/04/10 13:15:32;;;;;;;1.33;0.27;;;;;;;;;;10287696;28;20119;-65
2021/04/10 13:20:29;;;;;;;0.63;0.30;;;;;;;;;;10281748;28;20038;-66
2021/04/10 13:25:27;;;;;;;0.98;0.32;;;;;;;;;;10270820;28;20037;-65
2021/04/10 13:30:25;;;;;;;0.77;0.30;;;;;;;;;;10273906;28;20056;-64
2021/04/10 13:35:25;;;;;;;0.25;0.20;;;;;;;;;;10280031;28;20028;-64
2021/04/10 13:40:23;;;;;;;1.38;0.20;;;;;;;;;;10272831;28;20530;-65
2021/04/10 13:45:20;;;;;;;1.47;0.33;;;;;;;;;;10268471;28;20049;-63
2021/04/10 13:50:18;;;;;;;1.70;0.50;;;;;;;;;;10261263;28;20033;-65
2021/04/10 13:55:15;;;;;;;1.50;0.50;;;;;;;;;;10280625;28;20037;-64
2021/04/10 14:00:13;;;;;;;1.90;0.20;;;;;;;;;;10292756;28;20159;-65
2021/04/10 14:05:12;;;;;;;2.03;0.75;;;;;;;;;;10281076;28;20483;-65
2021/04/10 14:10:11;;;;;;;1.05;0.25;;;;;;;;;;10292282;28;20495;-64
2021/04/10 14:15:14;;;;;;;1.52;0.40;;;;;;;;;;10289142;28;20052;-65
2021/04/10 14:20:13;;;;;;;1.88;0.57;;;;;;;;;;10281242;28;20352;-65
2021/04/10 14:25:11;;;;;;;0.35;0.20;;;;;;;;;;10278685;28;20407;-65
2021/04/10 14:30:19;;;;;;;0.80;0.40;;;;;;;;;;10285041;28;20033;-64
2021/04/10 14:35:18;;;;;;;2.57;0.50;;;;;;;;;;10259134;28;20534;-65
2021/04/10 14:40:17;;;;;;;1.23;0.30;;;;;;;;;;10288791;28;20038;-65
2021/04/10 14:45:14;;;;;;;1.33;0.30;;;;;;;;;;10265817;28;20466;-65
2021/04/10 14:50:12;;;;;;;0.83;0.30;;;;;;;;;;10277764;28;20042;-64
2021/04/10 14:55:11;;;;;;;0.95;0.20;;;;;;;;;;10275949;28;20182;-66
2021/04/10 15:00:09;;;;;;;0.93;0.40;;;;;;;;;;10290974;28;20563;-65
2021/04/10 15:05:08;;;;;;;2.60;0.70;;;;;;;;;;10277225;28;20037;-65
2021/04/10 15:10:06;;;;;;;1.67;0.43;;;;;;;;;;10257549;28;20037;-65
2021/04/10 15:15:05;;;;;;;0.93;0.40;;;;;;;;;;10266766;28;20034;-65
2021/04/10 15:20:03;;;;;;;1.13;0.40;;;;;;;;;;10271521;28;20395;-65
2021/04/10 15:25:00;;;;;;;1.85;0.43;;;;;;;;;;10290058;28;20503;-64
2021/04/10 15:29:58;;;;;;;0.47;0.37;;;;;;;;;;10285411;28;20132;-65
2021/04/10 15:34:55;;;;;;;2.17;0.33;;;;;;;;;;10258740;28;20160;-65
2021/04/10 15:39:53;;;;;;;1.00;0.30;;;;;;;;;;10272623;28;20169;-64
2021/04/10 15:44:51;;;;;;;1.43;0.43;;;;;;;;;;10268313;28;20025;-65
2021/04/10 15:49:48;;;;;;;2.67;0.68;;;;;;;;;;10239039;28;20499;-65
2021/04/10 15:54:46;;;;;;;2.37;0.73;;;;;;;;;;10274993;28;20037;-67
2021/04/10 15:59:44;;;;;;;3.80;0.70;;;;;;;;;;10275359;28;20042;-66
2021/04/10 16:04:41;;;;;;;1.67;0.60;;;;;;;;;;10257814;28;20033;-66
2021/04/10 16:09:38;;;;;;;0.43;0.43;;;;;;;;;;10272375;28;20048;-66
2021/04/10 16:14:36;;;;;;;2.83;0.50;;;;;;;;;;10266800;28;20029;-66
2021/04/10 16:19:33;;;;;;;4.70;2.13;;;;;;;;;;10273000;28;20041;-66
2021/04/10 16:24:31;;;;;;;4.23;1.00;;;;;;;;;;10279923;28;20041;-66
2021/04/10 16:29:28;;;;;;;4.07;1.37;;;;;;;;;;10272359;28;20037;-67
2021/04/10 16:34:25;;;;;;;4.80;1.20;;;;;;;;;;10246477;28;20029;-67
2021/04/10 16:39:23;;;;;;;6.47;2.10;;;;;;;;;;10276707;28;20084;-66
2021/04/10 16:44:20;;;;;;;2.57;1.37;;;;;;;;;;10270391;28;20576;-66
2021/04/10 16:49:18;;;;;;;2.30;0.77;;;;;;;;;;10275154;28;20526;-66
2021/04/10 16:54:15;;;;;;;10.63;1.77;;;;;;;;;;10281758;28;20384;-66
2021/04/10 16:59:12;;;;;;;4.93;0.80;;;;;;;;;;10268926;28;20132;-67
2021/04/10 17:04:10;;;;;;;1.63;0.80;;;;;;;;;;10272767;28;20042;-66
2021/04/10 17:09:07;;;;;;;2.73;0.97;;;;;;;;;;10275563;28;20030;-66
2021/04/10 17:14:05;;;;;;;1.30;0.50;;;;;;;;;;10307391;22;20127;-65
2021/04/10 17:19:03;;;;;;;1.88;0.80;;;;;;;;;;10374012;28;20093;-66
2021/04/10 17:24:00;;;;;;;0.60;0.60;;;;;;;;;;10402026;28;20501;-68
2021/04/10 17:28:58;;;;;;;4.40;0.73;;;;;;;;;;10399069;28;20495;-66
2021/04/10 17:33:55;;;;;;;1.97;0.30;;;;;;;;;;10394080;28;20513;-65
2021/04/10 17:38:53;;;;;;;0.90;0.47;;;;;;;;;;10379076;28;20085;-65
2021/04/10 17:43:51;;;;;;;0.20;0.20;;;;;;;;;;10376605;22;20875;-63
2021/04/10 17:48:51;;;;;;;3.17;0.70;;;;;;;;;;10297054;28;20144;-64
2021/04/10 17:53:49;;;;;;;0.88;0.43;;;;;;;;;;10327901;28;20029;-64
2021/04/10 17:58:48;;;;;;;2.30;0.60;;;;;;;;;;10345327;28;20693;-64
2021/04/10 18:03:45;;;;;;;1.58;0.90;;;;;;;;;;10355974;28;20048;-65
2021/04/10 18:08:43;;;;;;;1.77;0.33;;;;;;;;;;10355154;28;20033;-64
2021/04/10 18:13:40;;;;;;;1.23;0.53;;;;;;;;;;10328455;28;20064;-63
2021/04/10 18:18:38;;;;;;;0.63;0.50;;;;;;;;;;10340181;28;20095;-63
2021/04/10 18:23:37;;;;;;;1.00;0.50;;;;;;;;;;10353629;28;20532;-62
2021/04/10 18:28:35;;;;;;;0.73;0.73;;;;;;;;;;10330807;28;20089;-64
2021/04/10 18:33:35;;;;;;;3.00;0.30;;;;;;;;;;10351720;28;20127;-64
2021/04/10 18:38:32;;;;;;;2.45;0.47;;;;;;;;;;10325634;28;20033;-63
2021/04/10 18:43:31;;;;;;;1.53;0.40;;;;;;;;;;10351521;28;20033;-61
2021/04/10 18:48:29;;;;;;;1.77;0.60;;;;;;;;;;10346207;28;20029;-62
2021/04/10 18:53:28;;;;;;;2.47;0.30;;;;;;;;;;10357465;28;20041;-64
2021/04/10 18:58:26;;;;;;;1.88;0.75;;;;;;;;;;10355262;28;20062;-62
2021/04/10 19:03:24;;;;;;;0.60;0.40;;;;;;;;;;10354488;28;20175;-63
2021/04/10 19:08:22;;;;;;;1.10;0.83;;;;;;;;;;10360894;28;20127;-63
2021/04/10 19:13:21;;;;;;;2.05;0.30;;;;;;;;;;10329527;28;20515;-63
2021/04/10 19:18:19;;;;;;;3.42;0.63;;;;;;;;;;10352085;28;20033;-62
2021/04/10 19:23:16;;;;;;;5.20;0.93;;;;;;;;;;10341946;28;20037;-63
2021/04/10 19:28:14;;;;;;;0.67;0.50;;;;;;;;;;10340532;28;20044;-61
2021/04/10 19:33:17;;;;;;;0.50;0.20;;;;;;;;;;10350633;28;20405;-63
2021/04/10 19:38:15;;;;;;;1.00;0.57;;;;;;;;;;10351108;28;20040;-62
2021/04/10 19:43:12;;;;;;;0.50;0.50;;;;;;;;;;10348702;28;20506;-62
2021/04/10 19:48:10;;;;;;;3.17;0.77;;;;;;;;;;10347945;28;20047;-62
2021/04/10 19:53:07;;;;;;;0.80;0.60;;;;;;;;;;10344711;28;20032;-61
2021/04/10 19:58:05;;;;;;;1.50;1.17;;;;;;;;;;10356620;28;20072;-62
2021/04/10 20:03:03;;;;;;;1.45;1.00;;;;;;;;;;10363124;28;20016;-64
2021/04/10 20:08:00;;;;;;;2.53;0.63;;;;;;;;;;10330698;28;20040;-62
2021/04/10 20:12:58;;;;;;;1.83;0.97;;;;;;;;;;10356270;28;20039;-60
2021/04/10 20:17:59;;;;;;;3.70;1.00;;;;;;;;;;10322332;28;20032;-62
2021/04/10 20:22:56;;;;;;;4.25;1.45;;;;;;;;;;10338388;28;20032;-62
2021/04/10 20:27:54;;;;;;;7.63;1.60;;;;;;;;;;10337747;28;20043;-59
2021/04/10 20:32:52;;;;;;;3.08;1.52;;;;;;;;;;10345803;28;20029;-61
2021/04/10 20:37:50;;;;;;;6.13;2.00;;;;;;;;;;10336894;28;20025;-62
2021/04/10 20:42:48;;;;;;;2.03;0.40;;;;;;;;;;10353425;28;20032;-62
2021/04/10 20:47:47;;;;;;;0.70;0.70;;;;;;;;;;10362717;28;20481;-61
2021/04/10 20:52:45;;;;;;;2.50;0.60;;;;;;;;;;10354608;28;20044;-62
2021/04/10 20:57:42;;;;;;;5.90;0.93;;;;;;;;;;10353814;28;20040;-62
2021/04/10 21:02:40;;;;;;;1.67;0.93;;;;;;;;;;10370158;28;20055;-62
2021/04/10 21:07:38;;;;;;;0.67;0.60;;;;;;;;;;10363278;28;20505;-62
2021/04/10 21:12:37;;;;;;;1.00;1.00;;;;;;;;;;10350946;28;20079;-63
2021/04/10 21:17:34;;;;;;;1.33;0.57;;;;;;;;;;10366813;28;20032;-63
2021/04/10 21:22:32;;;;;;;1.00;0.90;;;;;;;;;;10361685;28;20033;-62
2021/04/10 21:27:29;;;;;;;1.13;0.60;;;;;;;;;;10374135;28;20032;-61
2021/04/10 21:32:26;;;;;;;1.10;0.80;;;;;;;;;;10348531;28;20592;-60
2021/04/10 21:37:24;;;;;;;1.43;0.80;;;;;;;;;;10361848;28;20111;-60
2021/04/10 21:42:21;;;;;;;1.20;0.70;;;;;;;;;;10348806;28;20041;-62
2021/04/10 21:47:19;;;;;;;2.13;0.70;;;;;;;;;;10366749;28;20532;-61
2021/04/10 21:52:16;;;;;;;0.63;0.60;;;;;;;;;;10355991;28;20035;-61
2021/04/10 21:57:14;;;;;;;2.60;1.13;;;;;;;;;;10348396;28;20024;-61
2021/04/10 22:02:11;;;;;;;1.47;1.10;;;;;;;;;;10357797;28;20032;-61
2021/04/10 22:07:09;;;;;;;2.77;1.17;;;;;;;;;;10359939;28;20032;-61
2021/04/10 22:12:07;;;;;;;2.00;0.90;;;;;;;;;;10345931;28;20410;-61
2021/04/10 22:17:04;;;;;;;;;;;;;;;;;;10345311;28;20625;-59
2021/04/10 22:22:02;;;;;;;4.05;1.20;;;;;;;;;;10335063;28;19995;-62
2021/04/10 22:26:59;;;;;;;2.97;1.00;;;;;;;;;;10355977;28;20489;-62
2021/04/10 22:31:57;;;;;;;6.23;1.00;;;;;;;;;;10341739;28;20041;-61
2021/04/10 22:36:54;;;;;;;4.47;1.63;;;;;;;;;;10354690;28;20474;-61
2021/04/10 22:41:52;;;;;;;1.53;0.83;;;;;;;;;;10349970;28;20044;-61
2021/04/10 22:46:49;;;;;;;1.10;0.70;;;;;;;;;;10341264;28;20040;-60
2021/04/10 22:51:46;;;;;;;2.07;0.60;;;;;;;;;;10367398;28;20036;-61
2021/04/10 22:56:44;;;;;;;0.23;0.23;;;;;;;;;;10341604;28;20028;-61
2021/04/10 23:01:41;;;;;;;1.50;0.57;;;;;;;;;;10367025;28;20170;-60
2021/04/10 23:06:38;;;;;;;2.03;1.10;;;;;;;;;;10363839;28;21236;-62
2021/04/10 23:11:36;;;;;;;0.93;0.70;;;;;;;;;;10365421;28;20048;-61
2021/04/10 23:16:33;;;;;;;0.57;0.57;;;;;;;;;;10371962;28;20029;-61
2021/04/10 23:21:31;;;;;;;1.63;0.93;;;;;;;;;;10373047;28;20995;-60
2021/04/10 23:26:28;;;;;;;1.47;1.10;;;;;;;;;;10371753;28;20043;-61
2021/04/10 23:31:25;;;;;;;2.53;0.90;;;;;;;;;;10380560;28;20686;-60
2021/04/10 23:36:23;;;;;;;1.53;1.13;;;;;;;;;;10369134;28;20036;-61
2021/04/10 23:41:21;;;;;;;2.73;1.20;;;;;;;;;;10356846;28;20033;-62
2021/04/10 23:46:18;;;;;;;3.20;1.03;;;;;;;;;;10364514;28;20036;-60
2021/04/10 23:51:16;;;;;;;1.60;0.77;;;;;;;;;;10350424;28;20060;-60
2021/04/10 23:56:13;;;;;;;1.20;0.83;;;;;;;;;;10358475;28;20090;-59
